createdAt,value
2022-12-18T00:01:39.645Z,10.47
2022-12-18T00:04:08.087Z,9.27
2022-12-18T00:06:36.217Z,9.75
2022-12-18T00:09:04.734Z,10.48
2022-12-18T00:11:32.856Z,9.57
2022-12-18T00:14:01.128Z,9.87
2022-12-18T00:16:29.346Z,10.70
2022-12-18T00:18:57.842Z,10.98
2022-12-18T00:21:24.363Z,10.52
2022-12-18T00:23:51.676Z,10.93
2022-12-18T00:26:20.642Z,10.07
2022-12-18T00:28:49.014Z,10.95
2022-12-18T00:31:18.301Z,10.27
2022-12-18T00:33:45.397Z,11.10
2022-12-18T00:36:14.434Z,10.32
2022-12-18T00:38:41.826Z,11.80
2022-12-18T00:41:11.462Z,10.95
2022-12-18T00:43:40.365Z,10.80
2022-12-18T00:46:08.800Z,10.18
2022-12-18T00:48:36.260Z,14.05
2022-12-18T00:51:02.841Z,11.23
2022-12-18T00:53:29.388Z,8.38
2022-12-18T00:55:55.946Z,7.78
2022-12-18T00:58:22.499Z,7.38
2022-12-18T01:00:49.169Z,7.65
2022-12-18T01:03:17.355Z,8.63
2022-12-18T01:05:44.227Z,9.00
2022-12-18T01:08:10.765Z,9.52
2022-12-18T01:10:37.280Z,9.77
2022-12-18T01:13:04.027Z,10.02
2022-12-18T01:15:30.600Z,9.07
2022-12-18T01:17:57.236Z,9.60
2022-12-18T01:20:25.411Z,9.52
2022-12-18T01:22:52.099Z,8.88
2022-12-18T01:25:18.842Z,7.78
2022-12-18T01:27:45.389Z,8.30
2022-12-18T01:30:12.590Z,7.78
2022-12-18T01:32:39.381Z,9.10
2022-12-18T01:35:07.198Z,8.32
2022-12-18T01:37:35.153Z,8.93
2022-12-18T01:40:01.882Z,7.93
2022-12-18T01:42:28.425Z,7.90
2022-12-18T01:45:01.415Z,7.88
2022-12-18T01:47:33.160Z,7.53
2022-12-18T01:50:03.434Z,9.52
2022-12-18T01:52:33.666Z,8.30
2022-12-18T01:55:04.066Z,7.88
2022-12-18T01:57:30.695Z,8.45
2022-12-18T02:00:02.043Z,7.63
2022-12-18T02:02:30.312Z,6.93
2022-12-18T02:04:57.160Z,8.17
2022-12-18T02:07:33.703Z,7.57
2022-12-18T02:10:07.655Z,8.05
2022-12-18T02:12:43.870Z,7.82
2022-12-18T02:15:15.627Z,8.65
2022-12-18T02:17:48.535Z,7.00
2022-12-18T02:20:21.360Z,7.25
2022-12-18T02:23:01.370Z,6.88
2022-12-18T02:25:44.751Z,7.53
2022-12-18T02:28:17.043Z,7.65
2022-12-18T02:30:48.114Z,6.60
2022-12-18T02:33:16.035Z,7.13
2022-12-18T02:35:44.598Z,7.60
2022-12-18T02:38:12.897Z,7.15
2022-12-18T02:40:41.695Z,7.38
2022-12-18T02:43:09.879Z,8.37
2022-12-18T02:45:47.094Z,7.53
2022-12-18T02:48:14.209Z,6.90
2022-12-18T02:50:50.421Z,6.30
2022-12-18T02:53:27.436Z,6.85
2022-12-18T02:56:04.083Z,6.33
2022-12-18T02:58:41.199Z,6.32
2022-12-18T03:01:15.143Z,6.55
2022-12-18T03:03:46.924Z,7.05
2022-12-18T03:06:19.329Z,7.03
2022-12-18T03:08:50.811Z,6.67
2022-12-18T03:11:17.599Z,6.38
2022-12-18T03:13:48.389Z,7.28
2022-12-18T03:16:23.902Z,5.90
2022-12-18T03:18:53.235Z,5.45
2022-12-18T03:21:26.898Z,5.63
2022-12-18T03:23:54.749Z,5.65
2022-12-18T03:26:28.769Z,5.38
2022-12-18T03:29:00.853Z,5.20
2022-12-18T03:31:32.088Z,5.78
2022-12-18T03:34:01.844Z,5.93
2022-12-18T03:36:31.557Z,6.05
2022-12-18T03:38:58.335Z,5.72
2022-12-18T03:41:32.134Z,5.88
2022-12-18T03:44:07.516Z,6.25
2022-12-18T03:46:44.614Z,5.07
2022-12-18T03:49:15.467Z,5.13
2022-12-18T03:51:49.759Z,6.30
2022-12-18T03:54:18.353Z,6.65
2022-12-18T03:56:49.813Z,6.78
2022-12-18T03:59:18.176Z,5.30
2022-12-18T04:01:48.646Z,6.75
2022-12-18T04:04:17.045Z,6.15
2022-12-18T04:06:46.509Z,5.93
2022-12-18T04:09:13.697Z,5.93
2022-12-18T04:11:41.225Z,5.57
2022-12-18T04:14:08.088Z,5.63
2022-12-18T04:16:35.722Z,5.88
2022-12-18T04:19:03.881Z,5.72
2022-12-18T04:21:30.453Z,5.60
2022-12-18T04:23:57.024Z,5.63
2022-12-18T04:26:23.990Z,5.50
2022-12-18T04:28:50.674Z,5.65
2022-12-18T04:31:17.200Z,6.07
2022-12-18T04:33:43.776Z,5.57
2022-12-18T04:36:11.658Z,5.53
2022-12-18T04:38:38.231Z,6.45
2022-12-18T04:41:05.083Z,5.90
2022-12-18T04:43:31.779Z,5.90
2022-12-18T04:46:02.931Z,5.88
2022-12-18T04:48:29.494Z,6.27
2022-12-18T04:50:56.135Z,6.15
2022-12-18T04:53:24.388Z,4.78
2022-12-18T04:55:50.971Z,5.50
2022-12-18T04:58:17.585Z,5.35
2022-12-18T05:00:44.138Z,4.57
2022-12-18T05:03:10.723Z,5.07
2022-12-18T05:05:37.247Z,5.60
2022-12-18T05:08:04.230Z,5.55
2022-12-18T05:10:37.784Z,5.95
2022-12-18T05:13:04.905Z,5.33
2022-12-18T05:15:33.029Z,5.72
2022-12-18T05:18:00.497Z,5.05
2022-12-18T05:20:28.861Z,5.10
2022-12-18T05:22:55.988Z,5.35
2022-12-18T05:25:23.381Z,4.00
2022-12-18T05:27:51.331Z,4.95
2022-12-18T05:30:18.391Z,5.13
2022-12-18T05:32:44.915Z,5.50
2022-12-18T05:35:12.078Z,5.20
2022-12-18T05:37:42.907Z,4.30
2022-12-18T05:40:11.017Z,4.15
2022-12-18T05:42:37.897Z,5.22
2022-12-18T05:45:07.140Z,4.68
2022-12-18T05:47:33.789Z,4.35
2022-12-18T05:50:00.517Z,4.57
2022-12-18T05:52:27.247Z,5.13
2022-12-18T05:54:53.948Z,5.90
2022-12-18T05:57:20.514Z,4.20
2022-12-18T05:59:47.164Z,5.40
2022-12-18T06:02:15.174Z,5.13
2022-12-18T06:04:41.801Z,4.93
2022-12-18T06:07:08.318Z,5.85
2022-12-18T06:09:34.812Z,5.47
2022-12-18T06:12:01.362Z,4.43
2022-12-18T06:14:28.246Z,4.93
2022-12-18T06:16:54.785Z,4.78
2022-12-18T06:19:22.694Z,5.55
2022-12-18T06:21:49.169Z,5.15
2022-12-18T06:24:16.126Z,6.35
2022-12-18T06:26:42.749Z,10.10
2022-12-18T06:29:09.451Z,7.55
2022-12-18T06:31:36.269Z,6.82
2022-12-18T06:34:03.950Z,6.28
2022-12-18T06:36:31.942Z,6.80
2022-12-18T06:38:59.216Z,6.10
2022-12-18T06:41:25.955Z,7.70
2022-12-18T06:43:56.750Z,7.07
2022-12-18T06:46:26.479Z,6.65
2022-12-18T06:48:52.990Z,6.07
2022-12-18T06:51:20.984Z,7.50
2022-12-18T06:53:49.139Z,7.68
2022-12-18T06:56:15.736Z,8.63
2022-12-18T06:58:42.322Z,8.57
2022-12-18T07:01:10.664Z,7.45
2022-12-18T07:03:37.978Z,7.40
2022-12-18T07:06:05.047Z,6.88
2022-12-18T07:08:31.724Z,6.88
2022-12-18T07:10:59.613Z,6.30
2022-12-18T07:13:26.183Z,5.30
2022-12-18T07:15:52.768Z,6.37
2022-12-18T07:18:19.309Z,6.68
2022-12-18T07:20:46.012Z,6.50
2022-12-18T07:23:14.349Z,6.97
2022-12-18T07:25:41.226Z,8.10
2022-12-18T07:28:12.890Z,6.20
2022-12-18T07:30:43.866Z,6.55
2022-12-18T07:33:10.456Z,7.13
2022-12-18T07:35:37.788Z,7.30
2022-12-18T07:38:04.790Z,6.28
2022-12-18T07:40:31.294Z,6.37
2022-12-18T07:42:58.229Z,5.85
2022-12-18T07:45:26.383Z,5.55
2022-12-18T07:47:53.195Z,5.80
2022-12-18T07:50:20.185Z,6.28
2022-12-18T07:52:47.159Z,5.93
2022-12-18T07:55:14.165Z,6.93
2022-12-18T07:57:50.749Z,8.85
2022-12-18T08:00:19.356Z,7.82
2022-12-18T08:02:48.301Z,8.27
2022-12-18T08:05:16.086Z,7.40
2022-12-18T08:07:42.833Z,6.90
2022-12-18T08:10:10.144Z,8.27
2022-12-18T08:12:36.708Z,8.43
2022-12-18T08:15:04.909Z,10.68
2022-12-18T08:17:33.113Z,10.00
2022-12-18T08:20:01.219Z,10.80
2022-12-18T08:22:27.868Z,8.15
2022-12-18T08:24:54.453Z,8.57
2022-12-18T08:27:31.213Z,8.27
2022-12-18T08:29:58.739Z,8.57
2022-12-18T08:32:25.796Z,9.07
2022-12-18T08:34:52.623Z,8.98
2022-12-18T08:37:20.564Z,8.10
2022-12-18T08:39:47.318Z,7.28
2022-12-18T08:42:13.893Z,8.47
2022-12-18T08:44:40.430Z,7.75
2022-12-18T08:47:07.722Z,9.25
2022-12-18T08:49:34.906Z,8.93
2022-12-18T08:52:01.711Z,9.57
2022-12-18T08:54:29.706Z,10.33
2022-12-18T08:56:56.248Z,9.68
2022-12-18T08:59:22.848Z,10.25
2022-12-18T09:01:51.317Z,11.25
2022-12-18T09:04:17.963Z,11.35
2022-12-18T09:06:44.618Z,7.83
2022-12-18T09:09:11.348Z,11.15
2022-12-18T09:11:39.373Z,11.23
2022-12-18T09:14:05.898Z,11.63
2022-12-18T09:16:33.739Z,10.77
2022-12-18T09:19:01.203Z,8.33
2022-12-18T09:21:30.057Z,9.30
2022-12-18T09:23:57.231Z,9.10
2022-12-18T09:26:24.994Z,8.50
2022-12-18T09:28:53.351Z,8.57
2022-12-18T09:31:22.235Z,8.90
2022-12-18T09:33:49.022Z,9.77
2022-12-18T09:36:17.999Z,9.38
2022-12-18T09:38:44.796Z,7.80
2022-12-18T09:41:28.222Z,9.23
2022-12-18T09:44:01.391Z,8.40
2022-12-18T09:46:31.480Z,8.52
2022-12-18T09:49:01.900Z,8.35
2022-12-18T09:51:31.602Z,8.05
2022-12-18T09:54:03.831Z,8.82
2022-12-18T09:56:35.776Z,8.60
2022-12-18T09:59:05.568Z,8.93
2022-12-18T10:01:41.443Z,8.52
2022-12-18T10:04:10.253Z,8.18
2022-12-18T10:06:43.859Z,8.85
2022-12-18T10:09:21.721Z,8.93
2022-12-18T10:11:58.394Z,8.40
2022-12-18T10:14:35.061Z,7.82
2022-12-18T10:17:14.520Z,7.97
2022-12-18T10:19:46.185Z,8.20
2022-12-18T10:22:23.242Z,8.33
2022-12-18T10:25:00.665Z,8.52
2022-12-18T10:27:28.352Z,7.10
2022-12-18T10:29:56.745Z,8.30
2022-12-18T10:32:25.500Z,8.75
2022-12-18T10:34:59.792Z,8.93
2022-12-18T10:37:28.986Z,9.10
2022-12-18T10:40:13.256Z,9.15
2022-12-18T10:42:43.449Z,8.63
2022-12-18T10:45:15.144Z,10.52
2022-12-18T10:47:45.689Z,9.53
2022-12-18T10:50:26.270Z,10.48
2022-12-18T10:53:00.439Z,11.43
2022-12-18T10:55:32.923Z,10.38
2022-12-18T10:58:18.304Z,10.95
2022-12-18T11:01:04.206Z,10.57
2022-12-18T11:03:32.917Z,9.48
2022-12-18T11:06:05.111Z,11.32
2022-12-18T11:08:31.813Z,10.18
2022-12-18T11:10:58.646Z,10.23
2022-12-18T11:13:27.602Z,11.80
2022-12-18T11:15:55.874Z,10.95
2022-12-18T11:18:27.371Z,10.65
2022-12-18T11:20:58.643Z,8.25
2022-12-18T11:23:26.511Z,9.60
2022-12-18T11:25:56.081Z,9.50
2022-12-18T11:28:36.389Z,8.52
2022-12-18T11:31:25.723Z,8.02
2022-12-18T11:34:27.443Z,9.20
2022-12-18T11:36:47.539Z,9.52
2022-12-18T11:39:19.976Z,9.17
2022-12-18T11:41:53.838Z,9.43
2022-12-18T11:44:26.102Z,9.65
2022-12-18T11:47:00.678Z,8.88
2022-12-18T11:49:33.471Z,9.30
2022-12-18T11:52:05.676Z,9.40
2022-12-18T11:54:32.228Z,9.25
2022-12-18T11:57:06.943Z,9.20
2022-12-18T11:59:40.189Z,10.18
2022-12-18T12:02:30.724Z,11.57
2022-12-18T12:05:16.468Z,10.13
2022-12-18T12:07:51.876Z,10.70
2022-12-18T12:10:30.556Z,12.20
2022-12-18T12:13:13.588Z,13.15
2022-12-18T12:15:52.939Z,10.85
2022-12-18T12:18:30.925Z,12.13
2022-12-18T12:21:08.341Z,13.88
2022-12-18T12:23:43.227Z,14.68
2022-12-18T12:26:16.546Z,13.57
2022-12-18T12:28:58.236Z,13.60
2022-12-18T12:31:37.665Z,12.03
2022-12-18T12:34:18.802Z,14.30
2022-12-18T12:36:57.017Z,13.02
2022-12-18T12:39:28.574Z,12.13
2022-12-18T12:41:55.998Z,11.90
2022-12-18T12:44:27.380Z,11.40
2022-12-18T12:47:01.772Z,11.05
2022-12-18T12:49:36.328Z,11.65
2022-12-18T12:52:13.368Z,11.30
2022-12-18T12:54:40.858Z,10.20
2022-12-18T12:57:13.682Z,10.97
2022-12-18T12:59:50.759Z,10.38
2022-12-18T13:02:23.508Z,12.70
2022-12-18T13:05:02.032Z,10.68
2022-12-18T13:07:33.477Z,12.20
2022-12-18T13:10:29.175Z,12.07
2022-12-18T13:12:58.625Z,11.45
2022-12-18T13:15:31.439Z,10.35
2022-12-18T13:18:19.483Z,10.85
2022-12-18T13:20:55.444Z,11.75
2022-12-18T13:23:34.978Z,9.80
2022-12-18T13:26:36.408Z,10.15
2022-12-18T13:29:03.610Z,8.70
2022-12-18T13:32:08.584Z,10.20
2022-12-18T13:34:35.564Z,9.82
2022-12-18T13:37:39.688Z,9.93
2022-12-18T13:40:51.373Z,7.22
2022-12-18T13:43:27.797Z,8.85
2022-12-18T13:46:03.736Z,8.05
2022-12-18T13:48:33.341Z,9.35
2022-12-18T13:51:02.764Z,10.57
2022-12-18T13:53:34.050Z,10.25
2022-12-18T13:56:00.747Z,9.52
2022-12-18T13:58:28.661Z,9.10
2022-12-18T14:00:55.355Z,10.30
2022-12-18T14:03:24.195Z,9.40
2022-12-18T14:05:57.519Z,9.45
2022-12-18T14:08:33.351Z,9.32
2022-12-18T14:11:00.120Z,10.52
2022-12-18T14:13:31.245Z,12.27
2022-12-18T14:16:00.945Z,12.13
2022-12-18T14:18:37.517Z,12.27
2022-12-18T14:21:05.439Z,12.38
2022-12-18T14:23:34.635Z,12.35
2022-12-18T14:26:05.980Z,20.42
2022-12-18T14:28:34.242Z,20.50
2022-12-18T14:31:01.055Z,15.93
2022-12-18T14:33:28.661Z,13.98
2022-12-18T14:35:58.756Z,13.43
2022-12-18T14:38:28.966Z,14.10
2022-12-18T14:40:58.241Z,12.70
2022-12-18T14:43:25.292Z,12.32
2022-12-18T14:45:54.008Z,12.30
2022-12-18T14:48:23.951Z,11.82
2022-12-18T14:51:00.989Z,13.82
2022-12-18T14:53:34.976Z,13.13
2022-12-18T14:56:02.767Z,13.82
2022-12-18T14:58:29.589Z,14.25
2022-12-18T15:00:57.779Z,14.77
2022-12-18T15:03:24.506Z,15.93
2022-12-18T15:05:52.256Z,17.73
2022-12-18T15:08:32.098Z,15.38
2022-12-18T15:10:59.578Z,15.57
2022-12-18T15:13:26.666Z,15.30
2022-12-18T15:15:54.961Z,16.10
2022-12-18T15:18:30.666Z,18.47
2022-12-18T15:20:59.272Z,19.42
2022-12-18T15:23:28.481Z,20.48
2022-12-18T15:25:59.776Z,19.23
2022-12-18T15:28:30.031Z,19.85
2022-12-18T15:31:01.738Z,19.17
2022-12-18T15:33:32.992Z,20.45
2022-12-18T15:36:00.890Z,20.38
2022-12-18T15:38:28.216Z,20.70
2022-12-18T15:40:55.437Z,21.10
2022-12-18T15:43:23.554Z,21.83
2022-12-18T15:45:50.168Z,23.38
2022-12-18T15:48:21.604Z,27.35
2022-12-18T15:50:50.815Z,24.27
2022-12-18T15:53:17.536Z,24.23
2022-12-18T15:55:44.138Z,22.37
2022-12-18T15:58:11.590Z,22.77
2022-12-18T16:00:40.947Z,23.52
2022-12-18T16:03:07.711Z,21.67
2022-12-18T16:05:34.496Z,21.25
2022-12-18T16:08:02.451Z,19.53
2022-12-18T16:10:29.727Z,19.52
2022-12-18T16:12:56.263Z,20.92
2022-12-18T16:15:24.992Z,20.05
2022-12-18T16:17:52.260Z,18.52
2022-12-18T16:20:20.905Z,19.20
2022-12-18T16:22:48.211Z,19.73
2022-12-18T16:25:20.438Z,20.65
2022-12-18T16:27:47.177Z,19.25
2022-12-18T16:30:16.741Z,18.40
2022-12-18T16:32:43.487Z,18.93
2022-12-18T16:35:11.935Z,17.77
2022-12-18T16:37:38.813Z,17.73
2022-12-18T16:40:07.199Z,20.73
2022-12-18T16:42:35.746Z,21.25
2022-12-18T16:45:02.301Z,19.70
2022-12-18T16:47:29.131Z,16.92
2022-12-18T16:49:55.864Z,15.25
2022-12-18T16:52:22.485Z,14.75
2022-12-18T16:54:49.054Z,14.10
2022-12-18T16:57:18.303Z,12.77
2022-12-18T16:59:46.865Z,13.05
2022-12-18T17:02:14.685Z,13.85
2022-12-18T17:04:42.194Z,13.00
2022-12-18T17:07:08.813Z,13.65
2022-12-18T17:09:35.719Z,12.90
2022-12-18T17:12:04.534Z,14.00
2022-12-18T17:14:32.962Z,14.10
2022-12-18T17:17:20.905Z,14.07
2022-12-18T17:19:47.812Z,14.07
2022-12-18T17:22:14.547Z,13.63
2022-12-18T17:24:41.069Z,13.90
2022-12-18T17:27:07.596Z,14.20
2022-12-18T17:29:34.256Z,16.50
2022-12-18T17:32:02.273Z,12.80
2022-12-18T17:34:29.013Z,15.53
2022-12-18T17:36:56.726Z,16.67
2022-12-18T17:39:23.538Z,12.63
2022-12-18T17:41:50.147Z,12.00
2022-12-18T17:44:17.748Z,12.18
2022-12-18T17:46:44.785Z,10.13
2022-12-18T17:49:13.464Z,9.55
2022-12-18T17:51:40.145Z,10.80
2022-12-18T17:54:06.691Z,8.68
2022-12-18T17:56:33.259Z,22.40
2022-12-18T17:58:59.975Z,22.50
2022-12-18T18:01:26.870Z,19.35
2022-12-18T18:03:54.395Z,21.40
2022-12-18T18:06:23.101Z,20.30
2022-12-18T18:08:49.905Z,18.67
2022-12-18T18:11:19.688Z,19.37
2022-12-18T18:13:47.113Z,21.00
2022-12-18T18:16:14.027Z,24.02
2022-12-18T18:18:40.689Z,22.25
2022-12-18T18:21:08.923Z,23.02
2022-12-18T18:23:37.318Z,22.53
2022-12-18T18:26:07.640Z,24.90
2022-12-18T18:28:34.263Z,24.52
2022-12-18T18:31:04.588Z,24.27
2022-12-18T18:33:31.377Z,21.83
2022-12-18T18:35:57.943Z,19.93
2022-12-18T18:38:25.806Z,20.75
2022-12-18T18:40:59.234Z,18.92
2022-12-18T18:43:25.936Z,20.77
2022-12-18T18:45:55.391Z,23.23
2022-12-18T18:48:22.175Z,22.33
2022-12-18T18:50:56.254Z,22.65
2022-12-18T18:53:22.777Z,24.80
2022-12-18T18:56:16.591Z,23.02
2022-12-18T18:58:37.993Z,29.17
2022-12-18T19:01:07.225Z,22.17
2022-12-18T19:03:34.845Z,23.38
2022-12-18T19:06:01.652Z,26.30
2022-12-18T19:08:30.291Z,23.50
2022-12-18T19:10:59.139Z,22.15
2022-12-18T19:13:27.688Z,21.97
2022-12-18T19:16:05.656Z,36.92
2022-12-18T19:18:33.527Z,23.60
2022-12-18T19:21:03.734Z,18.95
2022-12-18T19:23:31.506Z,17.55
2022-12-18T19:26:26.669Z,22.60
2022-12-18T19:28:47.828Z,18.95
2022-12-18T19:31:24.475Z,19.15
2022-12-18T19:33:56.391Z,19.75
2022-12-18T19:36:25.445Z,17.95
2022-12-18T19:38:54.544Z,17.30
2022-12-18T19:41:22.563Z,18.38
2022-12-18T19:43:50.973Z,17.30
2022-12-18T19:46:23.301Z,17.60
2022-12-18T19:48:56.454Z,20.83
2022-12-18T19:51:25.751Z,21.43
2022-12-18T19:53:58.500Z,18.67
2022-12-18T19:56:28.118Z,21.88
2022-12-18T19:58:55.680Z,23.08
2022-12-18T20:01:26.048Z,20.75
2022-12-18T20:03:54.645Z,20.70
2022-12-18T20:06:26.619Z,20.70
2022-12-18T20:09:00.224Z,22.85
2022-12-18T20:11:28.134Z,24.10
2022-12-18T20:13:56.774Z,21.30
2022-12-18T20:16:24.955Z,19.80
2022-12-18T20:18:52.298Z,17.77
2022-12-18T20:21:19.270Z,19.55
2022-12-18T20:23:46.648Z,17.80
2022-12-18T20:26:14.340Z,18.42
2022-12-18T20:28:41.843Z,20.43
2022-12-18T20:31:10.613Z,19.13
2022-12-18T20:33:43.099Z,20.52
2022-12-18T20:36:15.278Z,20.00
2022-12-18T20:38:43.639Z,20.02
2022-12-18T20:41:17.160Z,19.57
2022-12-18T20:43:45.035Z,21.10
2022-12-18T20:46:14.003Z,21.42
2022-12-18T20:48:42.658Z,22.10
2022-12-18T20:51:12.351Z,20.08
2022-12-18T20:53:42.107Z,19.93
2022-12-18T20:56:13.705Z,20.80
2022-12-18T20:58:45.160Z,21.52
2022-12-18T21:01:14.189Z,21.10
2022-12-18T21:03:44.155Z,21.90
2022-12-18T21:06:11.543Z,21.87
2022-12-18T21:08:38.943Z,19.75
2022-12-18T21:11:17.647Z,20.38
2022-12-18T21:13:47.568Z,18.83
2022-12-18T21:16:14.841Z,18.70
2022-12-18T21:18:44.516Z,19.33
2022-12-18T21:21:11.688Z,19.05
2022-12-18T21:23:39.070Z,19.38
2022-12-18T21:26:16.418Z,18.25
2022-12-18T21:28:44.039Z,22.50
2022-12-18T21:31:11.207Z,23.50
2022-12-18T21:33:38.780Z,23.10
2022-12-18T21:36:08.300Z,23.88
2022-12-18T21:38:35.674Z,27.00
2022-12-18T21:41:05.953Z,26.55
2022-12-18T21:43:33.395Z,25.80
2022-12-18T21:46:00.080Z,27.13
2022-12-18T21:48:26.736Z,24.25
2022-12-18T21:50:53.518Z,24.27
2022-12-18T21:53:21.907Z,24.50
2022-12-18T21:55:57.309Z,24.27
2022-12-18T21:58:23.907Z,24.75
2022-12-18T22:00:50.910Z,23.67
2022-12-18T22:03:19.418Z,23.63
2022-12-18T22:05:46.090Z,22.88
2022-12-18T22:08:15.975Z,21.27
2022-12-18T22:10:44.232Z,19.70
2022-12-18T22:13:11.061Z,20.35
2022-12-18T22:15:37.735Z,23.35
2022-12-18T22:18:04.438Z,22.90
2022-12-18T22:20:31.019Z,21.87
2022-12-18T22:22:57.905Z,20.42
2022-12-18T22:25:24.563Z,21.58
2022-12-18T22:27:52.565Z,20.65
2022-12-18T22:30:19.226Z,17.65
2022-12-18T22:32:45.970Z,17.73
2022-12-18T22:35:15.801Z,17.58
2022-12-18T22:37:42.749Z,17.40
2022-12-18T22:40:23.555Z,17.60
2022-12-18T22:42:52.656Z,18.00
2022-12-18T22:45:22.447Z,16.73
2022-12-18T22:47:49.101Z,17.05
2022-12-18T22:50:15.750Z,17.42
2022-12-18T22:52:42.460Z,16.92
2022-12-18T22:55:09.428Z,18.98
2022-12-18T22:57:36.050Z,17.00
2022-12-18T23:00:06.320Z,18.45
2022-12-18T23:02:33.003Z,20.30
2022-12-18T23:04:59.719Z,19.33
2022-12-18T23:07:26.310Z,19.48
2022-12-18T23:09:58.927Z,18.23
2022-12-18T23:12:27.740Z,17.50
2022-12-18T23:14:54.931Z,16.52
2022-12-18T23:17:22.843Z,18.50
2022-12-18T23:19:49.620Z,17.83
2022-12-18T23:22:16.392Z,19.37
2022-12-18T23:24:43.071Z,17.67
2022-12-18T23:27:11.508Z,17.63
2022-12-18T23:29:38.692Z,16.85
2022-12-18T23:32:05.195Z,19.10
2022-12-18T23:34:33.078Z,18.03
2022-12-18T23:36:59.588Z,17.45
2022-12-18T23:39:29.548Z,16.83
2022-12-18T23:41:56.803Z,18.33
2022-12-18T23:44:23.542Z,17.75
2022-12-18T23:46:50.364Z,17.23
2022-12-18T23:49:16.993Z,17.42
2022-12-18T23:51:44.935Z,19.98
2022-12-18T23:54:11.489Z,20.17
2022-12-18T23:56:38.063Z,20.88
2022-12-18T23:59:04.830Z,19.37
